Oklahoma City, OK (73118)

10:29 AM CST on December 22, 2014 (GMT -0600)
Heritage Hills | Change Station
CLOSE
Current Station
Personal Weather Station
Location: Oklahoma City, OK
Elevation: 1280 ft
Nearby Weather Stations

Elev 1280 ft 35.48 °N, 97.52 °W | Updated 14 minutes ago

Overcast
Overcast
51.6 °F
Feels Like 51.6 °F
N
3.0
Wind Variable Wind from West
Gusts 12.0 mph

Today
High -- | Low -- °F
--% Chance of Precip.
Yesterday
High -- | Low -- °F
Precip. -- in
7:36 AM 5:21 PM
New Moon, 1% visible
Pressure 29.59 in
Visibility 7.0 miles
Clouds Mostly Cloudy 2100 ft
Dew Point 46 °F
Humidity 82%
Rainfall 0.00 in
Snow Depth Not available.
UV 1 out of 12
Pollen 9.30 out of 12
Air Quality Not available.
Flu Activity Not available.
METAR KPWA 221553Z 31010KT 7SM BKN021 11/07 A2960 RMK AO2 SLP020 T01060067

More Conditions Fewer Conditions

Pressure 29.59 in
Visibility 7.0 miles
Clouds Mostly Cloudy 2100 ft
Dew Point 46 °F
Humidity 82%
Rainfall 0.00 in
Snow Depth Not available.
UV 1 out of 12
Pollen 9.30 out of 12
Air Quality Not available.
Flu Activity Not available.
METAR KPWA 221553Z 31010KT 7SM BKN021 11/07 A2960 RMK AO2 SLP020 T01060067

More Conditions Fewer Conditions

10-Day Weather Forecast

Almanac

Astronomy

Dec. 22, 2014 Rise Set
Actual Time
Civil Twilight
Nautical Twilight
Astronomical Twilight
Moon
Length of Visible Light
Length of Day
Tomorrow will be .
, % of the Moon is Illuminated

Today's Extremes

State Highs State Lows

Community

WunderPhotos

Upload Photos

1,779,632 photos uploaded!

WunderBlogs® & News

Nearby

Air Quality

  Air Quality AQ Index Pollutant
Not available.

Snow Depth

Station Depth Elevation

Earthquake Activity

City Distance Mag. Time & Date
Minimum magnitude displayed is 2.5.

Coastal Water Temperatures

Place Temperature

Nearby Weather Stations